sensor_id;sensor_type;location;lat;lon;timestamp;P1;durP1;ratioP1;P2;durP2;ratioP2
2157;SDS011;41972;48.774;9.282;2022-08-04T00:01:38;22.90;;;22.10;;
2157;SDS011;41972;48.774;9.282;2022-08-04T00:04:15;18.07;;;17.23;;
2157;SDS011;41972;48.774;9.282;2022-08-04T00:12:15;7.30;;;6.80;;
2157;SDS011;41972;48.774;9.282;2022-08-04T00:14:48;20.63;;;19.93;;
2157;SDS011;41972;48.774;9.282;2022-08-04T00:17:19;15.53;;;14.93;;
2157;SDS011;41972;48.774;9.282;2022-08-04T00:19:48;12.07;;;11.40;;
2157;SDS011;41972;48.774;9.282;2022-08-04T00:22:34;24.93;;;24.03;;
2157;SDS011;41972;48.774;9.282;2022-08-04T00:25:04;22.30;;;21.30;;
2157;SDS011;41972;48.774;9.282;2022-08-04T00:27:30;22.00;;;21.10;;
2157;SDS011;41972;48.774;9.282;2022-08-04T00:29:57;19.77;;;19.03;;
2157;SDS011;41972;48.774;9.282;2022-08-04T00:32:25;16.47;;;15.77;;
2157;SDS011;41972;48.774;9.282;2022-08-04T00:34:52;31.97;;;30.83;;
2157;SDS011;41972;48.774;9.282;2022-08-04T00:37:27;18.47;;;17.80;;
2157;SDS011;41972;48.774;9.282;2022-08-04T00:39:53;13.30;;;12.70;;
2157;SDS011;41972;48.774;9.282;2022-08-04T00:42:33;14.00;;;13.37;;
2157;SDS011;41972;48.774;9.282;2022-08-04T00:45:22;18.47;;;17.70;;
2157;SDS011;41972;48.774;9.282;2022-08-04T00:48:01;20.00;;;19.03;;
2157;SDS011;41972;48.774;9.282;2022-08-04T00:51:10;6.07;;;5.67;;
2157;SDS011;41972;48.774;9.282;2022-08-04T00:53:54;14.77;;;14.17;;
2157;SDS011;41972;48.774;9.282;2022-08-04T00:56:36;11.23;;;10.83;;
2157;SDS011;41972;48.774;9.282;2022-08-04T01:02:18;7.57;;;7.20;;
2157;SDS011;41972;48.774;9.282;2022-08-04T01:05:03;18.33;;;17.57;;
2157;SDS011;41972;48.774;9.282;2022-08-04T01:07:36;20.17;;;19.43;;
2157;SDS011;41972;48.774;9.282;2022-08-04T01:10:13;19.33;;;18.57;;
2157;SDS011;41972;48.774;9.282;2022-08-04T01:15:39;19.77;;;19.00;;
2157;SDS011;41972;48.774;9.282;2022-08-04T01:18:48;11.03;;;10.53;;
2157;SDS011;41972;48.774;9.282;2022-08-04T01:26:54;29.50;;;28.10;;
2157;SDS011;41972;48.774;9.282;2022-08-04T01:29:52;13.23;;;12.63;;
2157;SDS011;41972;48.774;9.282;2022-08-04T01:32:35;24.07;;;23.17;;
2157;SDS011;41972;48.774;9.282;2022-08-04T01:35:27;21.70;;;20.80;;
2157;SDS011;41972;48.774;9.282;2022-08-04T01:40:51;24.33;;;23.43;;
2157;SDS011;41972;48.774;9.282;2022-08-04T01:43:19;11.60;;;11.03;;
2157;SDS011;41972;48.774;9.282;2022-08-04T01:45:48;22.43;;;21.53;;
2157;SDS011;41972;48.774;9.282;2022-08-04T01:48:16;6.93;;;6.17;;
2157;SDS011;41972;48.774;9.282;2022-08-04T01:50:46;14.10;;;13.50;;
2157;SDS011;41972;48.774;9.282;2022-08-04T01:53:14;10.17;;;9.40;;
2157;SDS011;41972;48.774;9.282;2022-08-04T01:55:39;25.93;;;25.00;;
2157;SDS011;41972;48.774;9.282;2022-08-04T01:58:07;18.87;;;18.00;;
2157;SDS011;41972;48.774;9.282;2022-08-04T02:00:35;12.50;;;12.00;;
2157;SDS011;41972;48.774;9.282;2022-08-04T02:03:03;15.27;;;14.17;;
2157;SDS011;41972;48.774;9.282;2022-08-04T02:05:28;28.63;;;27.43;;
2157;SDS011;41972;48.774;9.282;2022-08-04T02:13:09;18.77;;;17.97;;
2157;SDS011;41972;48.774;9.282;2022-08-04T02:18:56;11.60;;;11.00;;
2157;SDS011;41972;48.774;9.282;2022-08-04T02:21:24;6.73;;;6.33;;
2157;SDS011;41972;48.774;9.282;2022-08-04T02:23:53;14.83;;;14.23;;
2157;SDS011;41972;48.774;9.282;2022-08-04T02:26:25;21.83;;;21.03;;
2157;SDS011;41972;48.774;9.282;2022-08-04T02:29:00;18.87;;;18.07;;
2157;SDS011;41972;48.774;9.282;2022-08-04T02:37:11;9.63;;;9.13;;
2157;SDS011;41972;48.774;9.282;2022-08-04T02:39:44;21.27;;;20.47;;
2157;SDS011;41972;48.774;9.282;2022-08-04T02:42:14;14.97;;;14.37;;
2157;SDS011;41972;48.774;9.282;2022-08-04T02:44:40;17.73;;;17.00;;
2157;SDS011;41972;48.774;9.282;2022-08-04T02:47:12;21.00;;;20.20;;
2157;SDS011;41972;48.774;9.282;2022-08-04T02:49:39;16.83;;;16.23;;
2157;SDS011;41972;48.774;9.282;2022-08-04T02:52:09;17.23;;;16.33;;
2157;SDS011;41972;48.774;9.282;2022-08-04T02:54:38;17.93;;;17.13;;
2157;SDS011;41972;48.774;9.282;2022-08-04T02:57:08;18.40;;;17.60;;
2157;SDS011;41972;48.774;9.282;2022-08-04T02:59:59;16.10;;;15.30;;
2157;SDS011;41972;48.774;9.282;2022-08-04T03:05:45;18.70;;;17.97;;
2157;SDS011;41972;48.774;9.282;2022-08-04T03:08:28;18.20;;;17.40;;
2157;SDS011;41972;48.774;9.282;2022-08-04T03:22:33;20.17;;;19.33;;
2157;SDS011;41972;48.774;9.282;2022-08-04T03:37:26;16.67;;;16.07;;
2157;SDS011;41972;48.774;9.282;2022-08-04T03:45:56;19.27;;;18.53;;
2157;SDS011;41972;48.774;9.282;2022-08-04T03:48:46;10.87;;;10.30;;
2157;SDS011;41972;48.774;9.282;2022-08-04T03:56:35;14.70;;;14.03;;
2157;SDS011;41972;48.774;9.282;2022-08-04T03:59:17;15.67;;;14.97;;
2157;SDS011;41972;48.774;9.282;2022-08-04T04:01:59;22.37;;;21.53;;
2157;SDS011;41972;48.774;9.282;2022-08-04T04:07:30;15.87;;;15.13;;
2157;SDS011;41972;48.774;9.282;2022-08-04T04:10:07;17.97;;;17.20;;
2157;SDS011;41972;48.774;9.282;2022-08-04T04:15:42;17.40;;;16.50;;
2157;SDS011;41972;48.774;9.282;2022-08-04T04:24:48;15.87;;;15.27;;
2157;SDS011;41972;48.774;9.282;2022-08-04T04:35:26;18.13;;;17.53;;
2157;SDS011;41972;48.774;9.282;2022-08-04T04:38:28;17.47;;;16.77;;
2157;SDS011;41972;48.774;9.282;2022-08-04T04:51:42;14.40;;;13.80;;
2157;SDS011;41972;48.774;9.282;2022-08-04T04:54:25;13.60;;;12.80;;
2157;SDS011;41972;48.774;9.282;2022-08-04T04:57:12;16.03;;;15.43;;
2157;SDS011;41972;48.774;9.282;2022-08-04T04:59:52;17.33;;;16.63;;
2157;SDS011;41972;48.774;9.282;2022-08-04T05:02:27;12.97;;;12.37;;
2157;SDS011;41972;48.774;9.282;2022-08-04T05:07:49;17.47;;;16.77;;
2157;SDS011;41972;48.774;9.282;2022-08-04T05:15:57;21.60;;;20.90;;
2157;SDS011;41972;48.774;9.282;2022-08-04T05:18:28;12.67;;;11.87;;
2157;SDS011;41972;48.774;9.282;2022-08-04T05:21:18;20.97;;;20.17;;
2157;SDS011;41972;48.774;9.282;2022-08-04T05:24:01;15.23;;;14.53;;
2157;SDS011;41972;48.774;9.282;2022-08-04T05:26:31;13.33;;;12.77;;
2157;SDS011;41972;48.774;9.282;2022-08-04T05:28:59;22.17;;;21.37;;
2157;SDS011;41972;48.774;9.282;2022-08-04T05:31:38;16.73;;;16.13;;
2157;SDS011;41972;48.774;9.282;2022-08-04T05:34:14;12.80;;;12.27;;
2157;SDS011;41972;48.774;9.282;2022-08-04T05:36:47;17.20;;;16.23;;
2157;SDS011;41972;48.774;9.282;2022-08-04T05:39:18;14.73;;;14.13;;
2157;SDS011;41972;48.774;9.282;2022-08-04T05:41:46;15.40;;;14.77;;
2157;SDS011;41972;48.774;9.282;2022-08-04T05:44:14;17.17;;;16.27;;
2157;SDS011;41972;48.774;9.282;2022-08-04T05:46:42;9.53;;;8.17;;
2157;SDS011;41972;48.774;9.282;2022-08-04T05:49:09;16.27;;;15.60;;
2157;SDS011;41972;48.774;9.282;2022-08-04T05:51:35;14.00;;;13.20;;
2157;SDS011;41972;48.774;9.282;2022-08-04T05:54:01;17.00;;;16.30;;
2157;SDS011;41972;48.774;9.282;2022-08-04T05:56:29;19.30;;;18.33;;
2157;SDS011;41972;48.774;9.282;2022-08-04T05:58:57;19.87;;;18.70;;
2157;SDS011;41972;48.774;9.282;2022-08-04T06:01:25;18.83;;;17.93;;
2157;SDS011;41972;48.774;9.282;2022-08-04T06:03:52;12.03;;;11.53;;
2157;SDS011;41972;48.774;9.282;2022-08-04T06:06:19;14.33;;;13.60;;
2157;SDS011;41972;48.774;9.282;2022-08-04T06:08:46;11.93;;;11.43;;
2157;SDS011;41972;48.774;9.282;2022-08-04T06:11:11;11.43;;;10.97;;
2157;SDS011;41972;48.774;9.282;2022-08-04T06:13:42;12.80;;;12.30;;
2157;SDS011;41972;48.774;9.282;2022-08-04T06:16:12;16.77;;;15.97;;
2157;SDS011;41972;48.774;9.282;2022-08-04T06:18:40;11.37;;;10.83;;
2157;SDS011;41972;48.774;9.282;2022-08-04T06:21:09;18.47;;;17.77;;
2157;SDS011;41972;48.774;9.282;2022-08-04T06:23:36;16.33;;;15.60;;
2157;SDS011;41972;48.774;9.282;2022-08-04T06:26:06;19.70;;;19.00;;
2157;SDS011;41972;48.774;9.282;2022-08-04T06:28:36;20.27;;;19.33;;
2157;SDS011;41972;48.774;9.282;2022-08-04T06:31:02;16.80;;;15.97;;
2157;SDS011;41972;48.774;9.282;2022-08-04T06:33:30;15.17;;;14.57;;
2157;SDS011;41972;48.774;9.282;2022-08-04T06:36:01;12.60;;;12.03;;
2157;SDS011;41972;48.774;9.282;2022-08-04T06:38:30;18.20;;;17.50;;
2157;SDS011;41972;48.774;9.282;2022-08-04T06:40:57;21.53;;;20.83;;
2157;SDS011;41972;48.774;9.282;2022-08-04T06:43:27;19.43;;;18.37;;
2157;SDS011;41972;48.774;9.282;2022-08-04T06:45:54;17.50;;;16.67;;
2157;SDS011;41972;48.774;9.282;2022-08-04T06:48:23;23.13;;;22.23;;
2157;SDS011;41972;48.774;9.282;2022-08-04T06:50:50;17.70;;;17.00;;
2157;SDS011;41972;48.774;9.282;2022-08-04T06:53:17;18.30;;;17.60;;
2157;SDS011;41972;48.774;9.282;2022-08-04T06:55:44;15.07;;;14.37;;
2157;SDS011;41972;48.774;9.282;2022-08-04T06:58:11;14.13;;;13.53;;
2157;SDS011;41972;48.774;9.282;2022-08-04T07:00:38;16.07;;;15.43;;
2157;SDS011;41972;48.774;9.282;2022-08-04T07:03:05;16.17;;;15.57;;
2157;SDS011;41972;48.774;9.282;2022-08-04T07:05:31;14.53;;;13.53;;
2157;SDS011;41972;48.774;9.282;2022-08-04T07:07:58;18.80;;;17.97;;
2157;SDS011;41972;48.774;9.282;2022-08-04T07:10:25;19.50;;;18.80;;
2157;SDS011;41972;48.774;9.282;2022-08-04T07:12:52;10.87;;;10.03;;
2157;SDS011;41972;48.774;9.282;2022-08-04T07:15:18;19.90;;;19.10;;
2157;SDS011;41972;48.774;9.282;2022-08-04T07:17:45;31.67;;;30.57;;
2157;SDS011;41972;48.774;9.282;2022-08-04T07:20:11;19.00;;;18.20;;
2157;SDS011;41972;48.774;9.282;2022-08-04T07:22:37;19.90;;;19.20;;
2157;SDS011;41972;48.774;9.282;2022-08-04T07:25:08;16.13;;;15.33;;
2157;SDS011;41972;48.774;9.282;2022-08-04T07:27:34;21.63;;;20.93;;
2157;SDS011;41972;48.774;9.282;2022-08-04T07:30:01;11.97;;;11.37;;
2157;SDS011;41972;48.774;9.282;2022-08-04T07:32:29;22.07;;;21.17;;
2157;SDS011;41972;48.774;9.282;2022-08-04T07:34:56;20.63;;;19.73;;
2157;SDS011;41972;48.774;9.282;2022-08-04T07:37:22;16.33;;;15.50;;
2157;SDS011;41972;48.774;9.282;2022-08-04T07:39:48;12.10;;;11.60;;
2157;SDS011;41972;48.774;9.282;2022-08-04T07:42:13;9.43;;;9.00;;
2157;SDS011;41972;48.774;9.282;2022-08-04T07:44:43;24.43;;;23.60;;
2157;SDS011;41972;48.774;9.282;2022-08-04T07:47:10;20.17;;;19.47;;
2157;SDS011;41972;48.774;9.282;2022-08-04T07:49:35;23.23;;;22.20;;
2157;SDS011;41972;48.774;9.282;2022-08-04T07:52:01;16.27;;;15.37;;
2157;SDS011;41972;48.774;9.282;2022-08-04T07:54:28;13.90;;;13.30;;
2157;SDS011;41972;48.774;9.282;2022-08-04T07:56:53;13.03;;;12.53;;
2157;SDS011;41972;48.774;9.282;2022-08-04T07:59:19;13.23;;;12.63;;
2157;SDS011;41972;48.774;9.282;2022-08-04T08:01:45;15.83;;;15.23;;
2157;SDS011;41972;48.774;9.282;2022-08-04T08:04:12;20.87;;;20.17;;
2157;SDS011;41972;48.774;9.282;2022-08-04T08:06:39;19.47;;;18.67;;
2157;SDS011;41972;48.774;9.282;2022-08-04T08:09:10;27.13;;;26.23;;
2157;SDS011;41972;48.774;9.282;2022-08-04T08:11:42;22.50;;;21.60;;
2157;SDS011;41972;48.774;9.282;2022-08-04T08:14:09;20.20;;;19.50;;
2157;SDS011;41972;48.774;9.282;2022-08-04T08:16:36;26.33;;;25.10;;
2157;SDS011;41972;48.774;9.282;2022-08-04T08:19:02;20.97;;;20.20;;
2157;SDS011;41972;48.774;9.282;2022-08-04T08:21:28;21.90;;;21.10;;
2157;SDS011;41972;48.774;9.282;2022-08-04T08:23:54;27.10;;;26.03;;
2157;SDS011;41972;48.774;9.282;2022-08-04T08:26:20;26.83;;;25.93;;
2157;SDS011;41972;48.774;9.282;2022-08-04T08:28:46;26.57;;;25.53;;
2157;SDS011;41972;48.774;9.282;2022-08-04T08:31:12;29.50;;;28.43;;
2157;SDS011;41972;48.774;9.282;2022-08-04T08:33:37;30.33;;;29.23;;
2157;SDS011;41972;48.774;9.282;2022-08-04T08:36:17;12.30;;;11.70;;
2157;SDS011;41972;48.774;9.282;2022-08-04T08:56:01;32.47;;;31.37;;
2157;SDS011;41972;48.774;9.282;2022-08-04T08:59:38;17.63;;;16.93;;
2157;SDS011;41972;48.774;9.282;2022-08-04T09:13:22;9.20;;;8.67;;
2157;SDS011;41972;48.774;9.282;2022-08-04T09:16:07;14.90;;;14.10;;
2157;SDS011;41972;48.774;9.282;2022-08-04T09:21:35;14.17;;;13.53;;
2157;SDS011;41972;48.774;9.282;2022-08-04T09:29:46;13.33;;;12.80;;
2157;SDS011;41972;48.774;9.282;2022-08-04T09:32:33;22.40;;;21.60;;
2157;SDS011;41972;48.774;9.282;2022-08-04T09:35:32;23.80;;;23.00;;
2157;SDS011;41972;48.774;9.282;2022-08-04T09:38:25;23.97;;;22.97;;
2157;SDS011;41972;48.774;9.282;2022-08-04T09:47:01;25.83;;;24.80;;
2157;SDS011;41972;48.774;9.282;2022-08-04T09:49:31;45.00;;;43.40;;
2157;SDS011;41972;48.774;9.282;2022-08-04T09:52:10;38.43;;;36.97;;
2157;SDS011;41972;48.774;9.282;2022-08-04T09:55:04;39.73;;;38.03;;
2157;SDS011;41972;48.774;9.282;2022-08-04T09:57:48;32.90;;;31.60;;
2157;SDS011;41972;48.774;9.282;2022-08-04T10:00:16;36.37;;;35.07;;
2157;SDS011;41972;48.774;9.282;2022-08-04T10:02:52;30.37;;;29.27;;
2157;SDS011;41972;48.774;9.282;2022-08-04T10:05:21;37.50;;;36.30;;
2157;SDS011;41972;48.774;9.282;2022-08-04T10:08:00;35.43;;;34.23;;
2157;SDS011;41972;48.774;9.282;2022-08-04T10:10:39;28.87;;;27.77;;
2157;SDS011;41972;48.774;9.282;2022-08-04T10:19:23;32.93;;;31.77;;
2157;SDS011;41972;48.774;9.282;2022-08-04T10:21:58;32.43;;;31.23;;
2157;SDS011;41972;48.774;9.282;2022-08-04T10:24:55;30.37;;;29.30;;
2157;SDS011;41972;48.774;9.282;2022-08-04T10:27:33;26.43;;;25.50;;
2157;SDS011;41972;48.774;9.282;2022-08-04T10:30:05;31.27;;;29.97;;
2157;SDS011;41972;48.774;9.282;2022-08-04T10:32:49;30.83;;;29.73;;
2157;SDS011;41972;48.774;9.282;2022-08-04T10:35:22;40.23;;;38.83;;
2157;SDS011;41972;48.774;9.282;2022-08-04T10:43:19;9.30;;;9.00;;
2157;SDS011;41972;48.774;9.282;2022-08-04T10:46:11;15.93;;;15.30;;
2157;SDS011;41972;48.774;9.282;2022-08-04T10:48:42;7.00;;;6.60;;
2157;SDS011;41972;48.774;9.282;2022-08-04T10:51:41;8.60;;;8.10;;
2157;SDS011;41972;48.774;9.282;2022-08-04T10:54:23;32.07;;;30.80;;
2157;SDS011;41972;48.774;9.282;2022-08-04T10:57:12;30.30;;;29.10;;
2157;SDS011;41972;48.774;9.282;2022-08-04T10:59:50;28.07;;;27.07;;
2157;SDS011;41972;48.774;9.282;2022-08-04T11:07:45;23.33;;;22.53;;
2157;SDS011;41972;48.774;9.282;2022-08-04T11:10:14;24.93;;;24.13;;
2157;SDS011;41972;48.774;9.282;2022-08-04T11:12:44;26.40;;;25.50;;
2157;SDS011;41972;48.774;9.282;2022-08-04T11:15:47;21.83;;;21.03;;
2157;SDS011;41972;48.774;9.282;2022-08-04T11:18:11;25.97;;;25.03;;
2157;SDS011;41972;48.774;9.282;2022-08-04T11:20:46;26.47;;;25.47;;
2157;SDS011;41972;48.774;9.282;2022-08-04T11:23:23;23.37;;;22.57;;
2157;SDS011;41972;48.774;9.282;2022-08-04T11:28:36;31.10;;;29.90;;
2157;SDS011;41972;48.774;9.282;2022-08-04T11:31:23;34.87;;;33.53;;
2157;SDS011;41972;48.774;9.282;2022-08-04T11:34:08;27.30;;;26.20;;
2157;SDS011;41972;48.774;9.282;2022-08-04T11:36:54;36.27;;;34.90;;
2157;SDS011;41972;48.774;9.282;2022-08-04T11:39:42;26.80;;;25.80;;
2157;SDS011;41972;48.774;9.282;2022-08-04T11:42:17;27.87;;;26.57;;
2157;SDS011;41972;48.774;9.282;2022-08-04T11:44:47;31.63;;;30.63;;
2157;SDS011;41972;48.774;9.282;2022-08-04T11:47:28;26.50;;;25.40;;
2157;SDS011;41972;48.774;9.282;2022-08-04T11:50:06;33.17;;;32.00;;
2157;SDS011;41972;48.774;9.282;2022-08-04T11:52:59;36.70;;;35.40;;
2157;SDS011;41972;48.774;9.282;2022-08-04T11:55:26;22.97;;;21.97;;
2157;SDS011;41972;48.774;9.282;2022-08-04T11:57:53;27.13;;;26.13;;
2157;SDS011;41972;48.774;9.282;2022-08-04T12:00:19;31.70;;;30.50;;
2157;SDS011;41972;48.774;9.282;2022-08-04T12:03:05;23.23;;;22.30;;
2157;SDS011;41972;48.774;9.282;2022-08-04T12:06:05;39.77;;;38.17;;
2157;SDS011;41972;48.774;9.282;2022-08-04T12:12:06;21.37;;;20.57;;
2157;SDS011;41972;48.774;9.282;2022-08-04T12:14:46;27.17;;;25.97;;
2157;SDS011;41972;48.774;9.282;2022-08-04T12:20:10;36.10;;;34.90;;
2157;SDS011;41972;48.774;9.282;2022-08-04T12:22:46;42.23;;;40.83;;
2157;SDS011;41972;48.774;9.282;2022-08-04T12:25:25;34.60;;;33.20;;
2157;SDS011;41972;48.774;9.282;2022-08-04T12:27:56;33.60;;;32.47;;
2157;SDS011;41972;48.774;9.282;2022-08-04T12:30:26;35.50;;;34.30;;
2157;SDS011;41972;48.774;9.282;2022-08-04T12:33:01;31.07;;;29.90;;
2157;SDS011;41972;48.774;9.282;2022-08-04T12:35:47;43.10;;;41.47;;
2157;SDS011;41972;48.774;9.282;2022-08-04T12:38:31;35.03;;;33.87;;
2157;SDS011;41972;48.774;9.282;2022-08-04T12:40:58;37.03;;;35.73;;
2157;SDS011;41972;48.774;9.282;2022-08-04T12:43:37;10.83;;;10.33;;
2157;SDS011;41972;48.774;9.282;2022-08-04T12:46:09;33.17;;;32.07;;
2157;SDS011;41972;48.774;9.282;2022-08-04T12:48:46;27.33;;;26.23;;
2157;SDS011;41972;48.774;9.282;2022-08-04T12:51:13;24.77;;;23.93;;
2157;SDS011;41972;48.774;9.282;2022-08-04T12:53:41;20.37;;;19.57;;
2157;SDS011;41972;48.774;9.282;2022-08-04T12:56:08;28.00;;;27.00;;
2157;SDS011;41972;48.774;9.282;2022-08-04T12:58:36;32.30;;;31.10;;
2157;SDS011;41972;48.774;9.282;2022-08-04T13:01:08;22.87;;;22.07;;
2157;SDS011;41972;48.774;9.282;2022-08-04T13:03:46;36.20;;;34.80;;
2157;SDS011;41972;48.774;9.282;2022-08-04T13:06:29;41.27;;;39.60;;
2157;SDS011;41972;48.774;9.282;2022-08-04T13:09:05;26.03;;;25.13;;
2157;SDS011;41972;48.774;9.282;2022-08-04T13:11:58;28.93;;;27.80;;
2157;SDS011;41972;48.774;9.282;2022-08-04T13:14:30;38.40;;;37.10;;
2157;SDS011;41972;48.774;9.282;2022-08-04T13:16:59;37.83;;;36.43;;
2157;SDS011;41972;48.774;9.282;2022-08-04T13:19:26;26.50;;;25.17;;
2157;SDS011;41972;48.774;9.282;2022-08-04T13:21:52;27.10;;;26.00;;
2157;SDS011;41972;48.774;9.282;2022-08-04T13:24:19;33.27;;;32.10;;
2157;SDS011;41972;48.774;9.282;2022-08-04T13:26:57;24.37;;;23.47;;
2157;SDS011;41972;48.774;9.282;2022-08-04T13:29:32;34.10;;;33.00;;
2157;SDS011;41972;48.774;9.282;2022-08-04T13:32:01;27.83;;;26.83;;
2157;SDS011;41972;48.774;9.282;2022-08-04T13:34:30;32.87;;;31.67;;
2157;SDS011;41972;48.774;9.282;2022-08-04T13:36:57;34.37;;;33.10;;
2157;SDS011;41972;48.774;9.282;2022-08-04T13:39:23;23.80;;;22.90;;
2157;SDS011;41972;48.774;9.282;2022-08-04T13:41:52;32.43;;;31.33;;
2157;SDS011;41972;48.774;9.282;2022-08-04T13:44:24;28.80;;;27.80;;
2157;SDS011;41972;48.774;9.282;2022-08-04T13:46:54;8.07;;;7.73;;
2157;SDS011;41972;48.774;9.282;2022-08-04T13:49:23;8.33;;;6.73;;
2157;SDS011;41972;48.774;9.282;2022-08-04T13:51:55;13.77;;;13.00;;
2157;SDS011;41972;48.774;9.282;2022-08-04T13:54:23;13.33;;;12.63;;
2157;SDS011;41972;48.774;9.282;2022-08-04T13:57:10;7.10;;;6.70;;
2157;SDS011;41972;48.774;9.282;2022-08-04T13:59:43;32.33;;;31.13;;
2157;SDS011;41972;48.774;9.282;2022-08-04T14:05:00;31.50;;;30.17;;
2157;SDS011;41972;48.774;9.282;2022-08-04T14:08:33;29.23;;;28.23;;
2157;SDS011;41972;48.774;9.282;2022-08-04T14:10:41;30.03;;;28.83;;
2157;SDS011;41972;48.774;9.282;2022-08-04T14:13:07;26.53;;;25.53;;
2157;SDS011;41972;48.774;9.282;2022-08-04T14:18:19;33.33;;;32.23;;
2157;SDS011;41972;48.774;9.282;2022-08-04T14:21:02;37.40;;;36.20;;
2157;SDS011;41972;48.774;9.282;2022-08-04T14:23:28;24.10;;;23.30;;
2157;SDS011;41972;48.774;9.282;2022-08-04T14:26:12;30.83;;;29.73;;
2157;SDS011;41972;48.774;9.282;2022-08-04T14:31:36;32.13;;;30.70;;
2157;SDS011;41972;48.774;9.282;2022-08-04T14:34:02;38.57;;;37.27;;
2157;SDS011;41972;48.774;9.282;2022-08-04T14:36:28;30.37;;;29.20;;
2157;SDS011;41972;48.774;9.282;2022-08-04T14:39:09;30.30;;;29.30;;
2157;SDS011;41972;48.774;9.282;2022-08-04T14:41:48;27.87;;;26.57;;
2157;SDS011;41972;48.774;9.282;2022-08-04T14:44:15;31.10;;;29.93;;
2157;SDS011;41972;48.774;9.282;2022-08-04T14:46:59;42.90;;;41.30;;
2157;SDS011;41972;48.774;9.282;2022-08-04T14:49:26;22.33;;;21.43;;
2157;SDS011;41972;48.774;9.282;2022-08-04T14:51:52;41.13;;;39.53;;
2157;SDS011;41972;48.774;9.282;2022-08-04T14:54:39;33.07;;;31.87;;
2157;SDS011;41972;48.774;9.282;2022-08-04T14:57:05;21.60;;;20.70;;
2157;SDS011;41972;48.774;9.282;2022-08-04T14:59:39;21.23;;;20.23;;
2157;SDS011;41972;48.774;9.282;2022-08-04T15:02:13;32.93;;;31.73;;
2157;SDS011;41972;48.774;9.282;2022-08-04T15:04:40;23.13;;;22.27;;
2157;SDS011;41972;48.774;9.282;2022-08-04T15:07:07;26.17;;;24.97;;
2157;SDS011;41972;48.774;9.282;2022-08-04T15:09:33;32.47;;;31.13;;
2157;SDS011;41972;48.774;9.282;2022-08-04T15:12:00;28.70;;;27.70;;
2157;SDS011;41972;48.774;9.282;2022-08-04T15:14:28;28.30;;;27.17;;
2157;SDS011;41972;48.774;9.282;2022-08-04T15:16:54;45.47;;;43.90;;
2157;SDS011;41972;48.774;9.282;2022-08-04T15:19:19;27.03;;;26.03;;
2157;SDS011;41972;48.774;9.282;2022-08-04T15:21:46;36.17;;;34.93;;
2157;SDS011;41972;48.774;9.282;2022-08-04T15:24:12;44.70;;;43.20;;
2157;SDS011;41972;48.774;9.282;2022-08-04T15:26:39;43.73;;;41.83;;
2157;SDS011;41972;48.774;9.282;2022-08-04T15:29:10;41.77;;;40.27;;
2157;SDS011;41972;48.774;9.282;2022-08-04T15:31:41;29.47;;;28.37;;
2157;SDS011;41972;48.774;9.282;2022-08-04T15:34:08;29.57;;;28.37;;
2157;SDS011;41972;48.774;9.282;2022-08-04T15:47:36;28.63;;;27.63;;
2157;SDS011;41972;48.774;9.282;2022-08-04T15:52:58;17.23;;;16.53;;
2157;SDS011;41972;48.774;9.282;2022-08-04T15:55:31;34.27;;;32.87;;
2157;SDS011;41972;48.774;9.282;2022-08-04T15:58:02;39.27;;;37.77;;
2157;SDS011;41972;48.774;9.282;2022-08-04T16:01:33;27.27;;;26.27;;
2157;SDS011;41972;48.774;9.282;2022-08-04T16:19:10;23.37;;;22.50;;
2157;SDS011;41972;48.774;9.282;2022-08-04T16:21:54;18.50;;;17.80;;
2157;SDS011;41972;48.774;9.282;2022-08-04T16:34:32;43.63;;;42.23;;
2157;SDS011;41972;48.774;9.282;2022-08-04T16:37:00;36.00;;;34.70;;
2157;SDS011;41972;48.774;9.282;2022-08-04T16:39:30;28.80;;;27.80;;
2157;SDS011;41972;48.774;9.282;2022-08-04T16:41:56;30.60;;;28.90;;
2157;SDS011;41972;48.774;9.282;2022-08-04T16:44:35;40.40;;;38.90;;
2157;SDS011;41972;48.774;9.282;2022-08-04T16:47:03;36.17;;;34.87;;
2157;SDS011;41972;48.774;9.282;2022-08-04T16:49:30;34.60;;;33.10;;
2157;SDS011;41972;48.774;9.282;2022-08-04T16:52:04;43.73;;;42.23;;
2157;SDS011;41972;48.774;9.282;2022-08-04T16:54:34;30.93;;;29.93;;
2157;SDS011;41972;48.774;9.282;2022-08-04T16:57:06;23.23;;;22.33;;
2157;SDS011;41972;48.774;9.282;2022-08-04T16:59:33;32.37;;;31.10;;
2157;SDS011;41972;48.774;9.282;2022-08-04T17:01:59;28.53;;;27.20;;
2157;SDS011;41972;48.774;9.282;2022-08-04T17:04:32;31.23;;;30.13;;
2157;SDS011;41972;48.774;9.282;2022-08-04T17:07:03;37.40;;;35.63;;
2157;SDS011;41972;48.774;9.282;2022-08-04T17:09:29;34.57;;;33.30;;
2157;SDS011;41972;48.774;9.282;2022-08-04T17:11:56;36.50;;;35.20;;
2157;SDS011;41972;48.774;9.282;2022-08-04T17:14:24;34.20;;;32.80;;
2157;SDS011;41972;48.774;9.282;2022-08-04T17:16:51;37.73;;;36.27;;
2157;SDS011;41972;48.774;9.282;2022-08-04T17:19:18;29.47;;;28.37;;
2157;SDS011;41972;48.774;9.282;2022-08-04T17:21:44;28.47;;;27.23;;
2157;SDS011;41972;48.774;9.282;2022-08-04T17:24:10;25.80;;;24.80;;
2157;SDS011;41972;48.774;9.282;2022-08-04T17:26:36;29.83;;;28.70;;
2157;SDS011;41972;48.774;9.282;2022-08-04T17:29:03;32.60;;;31.30;;
2157;SDS011;41972;48.774;9.282;2022-08-04T17:31:30;37.00;;;35.70;;
2157;SDS011;41972;48.774;9.282;2022-08-04T17:33:58;29.50;;;28.23;;
2157;SDS011;41972;48.774;9.282;2022-08-04T17:36:28;11.50;;;11.00;;
2157;SDS011;41972;48.774;9.282;2022-08-04T17:39:02;13.77;;;13.13;;
2157;SDS011;41972;48.774;9.282;2022-08-04T17:41:44;5.73;;;4.50;;
2157;SDS011;41972;48.774;9.282;2022-08-04T17:44:10;12.87;;;12.37;;
2157;SDS011;41972;48.774;9.282;2022-08-04T17:54:37;7.20;;;6.60;;
2157;SDS011;41972;48.774;9.282;2022-08-04T17:57:18;8.23;;;7.73;;
2157;SDS011;41972;48.774;9.282;2022-08-04T17:59:45;13.83;;;13.13;;
2157;SDS011;41972;48.774;9.282;2022-08-04T18:02:22;28.93;;;27.87;;
2157;SDS011;41972;48.774;9.282;2022-08-04T18:04:49;31.73;;;30.53;;
2157;SDS011;41972;48.774;9.282;2022-08-04T18:07:20;25.37;;;24.47;;
2157;SDS011;41972;48.774;9.282;2022-08-04T18:09:58;27.73;;;26.53;;
2157;SDS011;41972;48.774;9.282;2022-08-04T18:12:26;23.17;;;22.10;;
2157;SDS011;41972;48.774;9.282;2022-08-04T18:15:00;39.13;;;37.70;;
2157;SDS011;41972;48.774;9.282;2022-08-04T18:17:34;37.73;;;36.53;;
2157;SDS011;41972;48.774;9.282;2022-08-04T18:20:01;37.33;;;36.07;;
2157;SDS011;41972;48.774;9.282;2022-08-04T18:22:32;47.10;;;45.60;;
2157;SDS011;41972;48.774;9.282;2022-08-04T18:24:57;40.50;;;39.00;;
2157;SDS011;41972;48.774;9.282;2022-08-04T18:27:23;58.20;;;56.40;;
2157;SDS011;41972;48.774;9.282;2022-08-04T18:29:51;40.13;;;38.83;;
2157;SDS011;41972;48.774;9.282;2022-08-04T18:32:17;43.27;;;41.77;;
2157;SDS011;41972;48.774;9.282;2022-08-04T18:34:44;35.03;;;33.67;;
2157;SDS011;41972;48.774;9.282;2022-08-04T18:37:10;19.43;;;18.73;;
2157;SDS011;41972;48.774;9.282;2022-08-04T18:39:36;38.60;;;37.30;;
2157;SDS011;41972;48.774;9.282;2022-08-04T18:42:01;34.13;;;32.80;;
2157;SDS011;41972;48.774;9.282;2022-08-04T18:44:27;26.57;;;25.67;;
2157;SDS011;41972;48.774;9.282;2022-08-04T18:46:54;35.87;;;34.10;;
2157;SDS011;41972;48.774;9.282;2022-08-04T18:49:20;33.40;;;32.20;;
2157;SDS011;41972;48.774;9.282;2022-08-04T18:51:48;41.50;;;40.10;;
2157;SDS011;41972;48.774;9.282;2022-08-04T18:54:15;47.50;;;45.70;;
2157;SDS011;41972;48.774;9.282;2022-08-04T18:56:40;29.30;;;28.20;;
2157;SDS011;41972;48.774;9.282;2022-08-04T18:59:06;30.40;;;29.20;;
2157;SDS011;41972;48.774;9.282;2022-08-04T19:01:32;34.40;;;32.87;;
2157;SDS011;41972;48.774;9.282;2022-08-04T19:03:57;38.90;;;37.60;;
2157;SDS011;41972;48.774;9.282;2022-08-04T19:06:23;30.80;;;29.40;;